Time;durP1;ratioP1;P1;durP2;ratioP2;P2;SDS_P1;SDS_P2;PMS_P1;PMS_P2;Temp;Humidity;BMP_temperature;BMP_pressure;BME280_temperature;BME280_humidity;BME280_pressure;Samples;Min_cycle;Max_cycle;Signal;HPM_P1;HPM_P2
2023/01/13 00:01:55;;;;;;;1.73;0.80;;;22.80;51.00;;;;;;4932229;29;20655;-57
2023/01/13 00:04:27;;;;;;;0.98;0.70;;;22.80;51.00;;;;;;4935634;29;20204;-51
2023/01/13 00:06:58;;;;;;;1.08;0.77;;;22.80;50.90;;;;;;4935994;29;20227;-54
2023/01/13 00:09:28;;;;;;;1.20;0.80;;;22.90;50.90;;;;;;4936040;29;20214;-54
2023/01/13 00:11:59;;;;;;;2.60;0.70;;;22.90;50.80;;;;;;4935235;29;20659;-55
2023/01/13 00:14:31;;;;;;;1.02;0.60;;;22.90;50.80;;;;;;4935674;29;20230;-50
2023/01/13 00:17:02;;;;;;;1.33;0.70;;;23.00;50.80;;;;;;4936203;29;20228;-55
2023/01/13 00:19:34;;;;;;;0.90;0.60;;;23.00;50.80;;;;;;4935694;29;20286;-50
2023/01/13 00:22:05;;;;;;;1.00;0.52;;;23.00;50.80;;;;;;4935366;29;20207;-52
2023/01/13 00:24:35;;;;;;;0.80;0.70;;;23.00;50.70;;;;;;4935210;29;20695;-57
2023/01/13 00:27:06;;;;;;;1.13;0.60;;;23.10;50.80;;;;;;4935275;29;20451;-54
2023/01/13 00:29:37;;;;;;;1.42;0.88;;;23.10;50.80;;;;;;4934635;29;20218;-51
2023/01/13 00:32:08;;;;;;;2.85;1.10;;;23.10;51.30;;;;;;4934985;29;20226;-55
2023/01/13 00:34:40;;;;;;;1.27;0.80;;;23.20;50.70;;;;;;4935353;29;20203;-59
2023/01/13 00:37:11;;;;;;;1.80;0.80;;;23.20;50.60;;;;;;4935083;29;20230;-54
2023/01/13 00:39:42;;;;;;;1.58;0.77;;;23.20;50.50;;;;;;4935847;29;20227;-55
2023/01/13 00:45:00;;;;;;;0.73;0.50;;;23.30;50.50;;;;;;4954314;28;20241;-57
2023/01/13 00:47:30;;;;;;;3.03;0.68;;;23.30;50.40;;;;;;4954044;28;20219;-52
2023/01/13 00:50:03;;;;;;;1.35;0.75;;;23.30;50.30;;;;;;4954075;28;20203;-55
2023/01/13 00:52:35;;;;;;;1.75;0.70;;;23.30;50.20;;;;;;4954045;28;20583;-50
2023/01/13 00:55:06;;;;;;;1.63;0.77;;;23.40;50.30;;;;;;4944412;28;20207;-52
2023/01/13 00:57:38;;;;;;;1.27;0.70;;;23.40;50.30;;;;;;4934653;29;21008;-55
2023/01/13 01:00:10;;;;;;;1.85;0.60;;;23.40;50.20;;;;;;4934892;29;20224;-58
2023/01/13 01:02:41;;;;;;;1.75;0.80;;;23.40;50.20;;;;;;4934445;29;20710;-49
2023/01/13 01:05:13;;;;;;;1.40;0.80;;;23.40;50.10;;;;;;4934394;29;20204;-50
2023/01/13 01:07:44;;;;;;;1.48;0.75;;;23.50;50.10;;;;;;4934971;29;20215;-51
2023/01/13 01:10:15;;;;;;;0.80;0.70;;;23.50;50.10;;;;;;4934578;29;20202;-50
2023/01/13 01:12:46;;;;;;;1.30;0.50;;;23.50;50.00;;;;;;4934563;29;20200;-54
2023/01/13 01:15:16;;;;;;;1.42;1.00;;;23.50;50.20;;;;;;4934527;29;20216;-46
2023/01/13 01:17:47;;;;;;;1.23;0.73;;;23.60;49.80;;;;;;4934733;29;20695;-55
2023/01/13 01:20:20;;;;;;;2.30;0.60;;;23.60;49.70;;;;;;4933935;29;20235;-50
2023/01/13 01:22:51;;;;;;;1.55;0.60;;;23.60;49.70;;;;;;4933138;29;20203;-51
2023/01/13 01:25:21;;;;;;;1.15;0.80;;;23.60;49.70;;;;;;4934649;29;20247;-50
2023/01/13 01:27:52;;;;;;;1.17;0.57;;;23.70;49.70;;;;;;4934320;29;20204;-54
2023/01/13 01:30:23;;;;;;;1.92;0.80;;;23.70;49.70;;;;;;4933323;29;20238;-53
2023/01/13 01:32:54;;;;;;;1.13;0.65;;;23.70;49.70;;;;;;4933421;29;20199;-51
2023/01/13 01:35:26;;;;;;;1.10;0.80;;;23.70;49.60;;;;;;4934042;29;20215;-50
2023/01/13 01:37:57;;;;;;;1.60;0.75;;;23.70;49.40;;;;;;4934061;29;20203;-54
2023/01/13 01:40:29;;;;;;;2.05;0.80;;;23.80;49.50;;;;;;4932982;29;20223;-57
2023/01/13 01:45:46;;;;;;;2.38;0.70;;;23.80;49.40;;;;;;4933956;29;20221;-52
2023/01/13 01:48:17;;;;;;;3.00;0.75;;;23.80;49.40;;;;;;4933845;29;20206;-51
2023/01/13 01:50:51;;;;;;;1.38;0.50;;;23.90;49.30;;;;;;4933429;29;20199;-57
2023/01/13 01:53:25;;;;;;;0.95;0.60;;;23.90;49.20;;;;;;4932966;29;20212;-52
2023/01/13 01:55:56;;;;;;;3.33;0.90;;;23.90;49.20;;;;;;4933632;29;20233;-59
2023/01/13 01:58:30;;;;;;;1.33;0.70;;;23.90;49.20;;;;;;4933767;29;20215;-50
2023/01/13 02:01:01;;;;;;;1.60;0.70;;;24.00;49.20;;;;;;4933133;29;20200;-54
2023/01/13 02:03:32;;;;;;;2.53;0.70;;;24.00;49.10;;;;;;4933241;29;20206;-53
2023/01/13 02:06:06;;;;;;;1.67;0.60;;;24.00;49.00;;;;;;4933696;29;20234;-48
2023/01/13 02:08:38;;;;;;;0.93;0.60;;;24.00;48.90;;;;;;4933641;29;20680;-51
2023/01/13 02:12:28;;;;;;;2.05;0.85;;;24.00;48.90;;;;;;4933748;29;20204;-53
2023/01/13 02:13:59;;;;;;;1.17;0.65;;;24.00;48.80;;;;;;4932131;29;20293;-51
2023/01/13 02:16:29;;;;;;;1.88;0.80;;;24.00;48.70;;;;;;4934341;29;20220;-53
2023/01/13 02:19:12;;;;;;;1.75;0.73;;;24.00;48.60;;;;;;4933695;29;20677;-49
2023/01/13 02:22:17;;;;;;;0.93;0.70;;;24.10;48.60;;;;;;4933879;29;20191;-52
2023/01/13 02:25:11;;;;;;;0.95;0.60;;;24.10;48.50;;;;;;4913348;29;20296;-51
2023/01/13 02:28:09;;;;;;;0.70;0.55;;;24.10;48.40;;;;;;4933629;29;20191;-55
2023/01/13 02:33:43;;;;;;;1.00;0.80;;;24.20;48.40;;;;;;4933027;29;20311;-50
2023/01/13 02:36:21;;;;;;;2.20;0.75;;;24.20;48.30;;;;;;4933032;29;20215;-48
2023/01/13 02:38:56;;;;;;;2.00;0.77;;;24.20;48.20;;;;;;4933048;29;20588;-51
2023/01/13 02:44:27;;;;;;;0.82;0.70;;;24.20;48.20;;;;;;4933330;29;20561;-49
2023/01/13 02:47:03;;;;;;;2.08;0.75;;;24.20;48.10;;;;;;4932334;29;20258;-55
2023/01/13 02:49:39;;;;;;;3.63;1.02;;;24.20;48.10;;;;;;4913724;29;20572;-56
2023/01/13 02:52:14;;;;;;;1.23;0.65;;;24.20;48.10;;;;;;4928313;29;20229;-56
2023/01/13 02:54:50;;;;;;;2.03;0.70;;;24.30;47.90;;;;;;4936214;29;20207;-57
2023/01/13 02:57:22;;;;;;;1.60;0.80;;;24.30;48.00;;;;;;4936954;29;20676;-53
2023/01/13 02:59:55;;;;;;;4.93;0.90;;;24.30;47.90;;;;;;4936492;29;20238;-49
2023/01/13 03:02:29;;;;;;;3.08;1.00;;;24.30;47.60;;;;;;4931937;29;20271;-48
2023/01/13 03:05:01;;;;;;;1.25;0.60;;;24.30;46.80;;;;;;4934097;29;20211;-53
2023/01/13 03:08:00;;;;;;;3.15;1.00;;;24.30;46.30;;;;;;4932645;29;20204;-51
2023/01/13 03:10:49;;;;;;;3.08;0.88;;;24.20;45.90;;;;;;4936450;29;20210;-54
2023/01/13 03:13:39;;;;;;;2.65;1.08;;;24.10;46.20;;;;;;4936029;29;20676;-54
2023/01/13 03:16:20;;;;;;;3.85;0.88;;;24.00;46.60;;;;;;4936608;29;20215;-55
2023/01/13 03:19:01;;;;;;;1.95;0.88;;;24.00;46.90;;;;;;4936504;29;20199;-57
2023/01/13 03:21:37;;;;;;;1.45;0.70;;;24.00;47.10;;;;;;4936111;29;20191;-52
2023/01/13 03:24:13;;;;;;;1.10;0.63;;;24.00;47.80;;;;;;4936330;29;20203;-57
2023/01/13 03:26:48;;;;;;;1.73;0.77;;;24.00;47.20;;;;;;4936638;29;20230;-57
2023/01/13 03:29:23;;;;;;;1.13;0.63;;;24.00;47.20;;;;;;4936612;29;20203;-55
2023/01/13 03:31:59;;;;;;;2.63;0.77;;;24.00;47.20;;;;;;4935859;29;20191;-56
2023/01/13 03:34:36;;;;;;;2.47;0.80;;;24.00;47.20;;;;;;4927965;29;20207;-53
2023/01/13 03:37:09;;;;;;;2.22;0.80;;;24.10;47.20;;;;;;4936225;29;20219;-53
2023/01/13 03:39:45;;;;;;;2.47;0.88;;;24.10;47.10;;;;;;4936182;29;20223;-56
2023/01/13 03:42:20;;;;;;;2.58;0.80;;;24.20;47.10;;;;;;4935712;29;20188;-51
2023/01/13 03:44:54;;;;;;;3.22;0.68;;;24.20;47.10;;;;;;4930852;29;20203;-54
2023/01/13 03:47:32;;;;;;;1.33;0.68;;;24.20;47.00;;;;;;4935447;29;20230;-47
2023/01/13 03:50:09;;;;;;;2.13;0.80;;;24.30;47.00;;;;;;4935649;29;20211;-53
2023/01/13 03:52:44;;;;;;;3.10;0.70;;;24.30;46.90;;;;;;4935568;29;20199;-53
2023/01/13 03:55:17;;;;;;;1.63;0.75;;;24.30;46.90;;;;;;4936130;29;20214;-50
2023/01/13 03:57:52;;;;;;;1.45;0.63;;;24.40;46.90;;;;;;4935903;29;20593;-51
2023/01/13 04:00:28;;;;;;;1.60;0.60;;;24.40;46.90;;;;;;4936304;29;20470;-49
2023/01/13 04:03:06;;;;;;;1.17;0.57;;;24.40;46.90;;;;;;4934816;29;20195;-54
2023/01/13 04:05:42;;;;;;;1.77;0.50;;;24.50;46.80;;;;;;4935796;29;20219;-53
2023/01/13 04:08:21;;;;;;;1.55;0.70;;;24.50;46.80;;;;;;4935739;29;20198;-51
2023/01/13 04:10:57;;;;;;;1.48;0.73;;;24.60;46.80;;;;;;4935622;29;20210;-52
2023/01/13 04:13:32;;;;;;;0.85;0.57;;;24.60;46.80;;;;;;4916403;29;20199;-49
2023/01/13 04:16:03;;;;;;;1.83;0.60;;;24.60;46.60;;;;;;4916630;29;20219;-58
2023/01/13 04:18:34;;;;;;;0.85;0.60;;;24.70;46.60;;;;;;4934298;29;20199;-51
2023/01/13 04:21:08;;;;;;;1.30;0.60;;;24.70;46.60;;;;;;4934742;29;20238;-51
2023/01/13 04:23:38;;;;;;;2.15;0.60;;;24.70;46.40;;;;;;4954642;28;20580;-50
2023/01/13 04:26:09;;;;;;;1.63;0.75;;;24.80;46.40;;;;;;4954010;28;20227;-48
2023/01/13 04:28:40;;;;;;;1.23;0.52;;;24.80;46.30;;;;;;4953274;28;20206;-48
2023/01/13 04:31:11;;;;;;;1.63;0.63;;;24.90;46.40;;;;;;4943183;28;20219;-53
2023/01/13 04:33:41;;;;;;;1.80;0.57;;;24.90;46.40;;;;;;4935039;29;20215;-49
2023/01/13 04:36:14;;;;;;;1.73;0.70;;;24.90;46.40;;;;;;4935064;29;20226;-52
2023/01/13 04:38:45;;;;;;;1.30;0.70;;;24.90;46.20;;;;;;4915548;29;20688;-54
2023/01/13 04:41:15;;;;;;;1.33;0.55;;;25.00;46.30;;;;;;4915853;29;20605;-50
2023/01/13 04:43:46;;;;;;;1.77;0.68;;;25.00;46.10;;;;;;4934892;29;20208;-49
2023/01/13 04:46:17;;;;;;;1.00;0.60;;;25.00;46.10;;;;;;4935124;29;20242;-50
2023/01/13 04:48:48;;;;;;;1.83;0.73;;;25.00;46.20;;;;;;4934583;29;20218;-53
2023/01/13 04:51:20;;;;;;;1.58;0.52;;;25.10;46.10;;;;;;4934960;29;20199;-49
2023/01/13 04:53:51;;;;;;;1.25;0.73;;;25.10;46.10;;;;;;4934680;29;20206;-50
2023/01/13 04:56:21;;;;;;;1.40;0.63;;;25.10;45.90;;;;;;4934313;29;20598;-53
2023/01/13 04:58:52;;;;;;;1.10;0.70;;;25.20;45.90;;;;;;4934053;29;20203;-55
2023/01/13 05:01:23;;;;;;;1.58;0.60;;;25.20;45.90;;;;;;4934206;29;20235;-49
2023/01/13 05:03:53;;;;;;;0.95;0.60;;;25.20;45.90;;;;;;4933855;29;20728;-57
2023/01/13 05:06:26;;;;;;;1.25;0.60;;;25.20;45.90;;;;;;4933994;29;20220;-56
2023/01/13 05:08:57;;;;;;;1.23;0.60;;;25.30;45.90;;;;;;4915242;29;20305;-58
2023/01/13 05:17:04;;;;;;;1.02;0.40;;;25.30;45.90;;;;;;4938681;29;20431;-51
2023/01/13 05:19:37;;;;;;;0.57;0.57;;;25.30;45.90;;;;;;4951995;28;20229;-52
2023/01/13 05:27:43;;;;;;;0.60;0.50;;;25.30;45.80;;;;;;4952826;29;20213;-54
2023/01/13 05:30:14;;;;;;;0.57;0.40;;;25.40;45.80;;;;;;4950805;28;20211;-48
2023/01/13 05:32:45;;;;;;;1.08;0.60;;;25.40;45.80;;;;;;4933333;29;20559;-51
2023/01/13 05:35:16;;;;;;;1.63;0.80;;;25.30;45.70;;;;;;4933676;29;20203;-50
2023/01/13 05:37:49;;;;;;;1.48;0.60;;;25.40;45.60;;;;;;4934183;29;20231;-53
2023/01/13 05:43:23;;;;;;;1.42;0.50;;;25.40;45.60;;;;;;4933143;29;20269;-51
2023/01/13 05:45:58;;;;;;;1.33;0.68;;;25.40;45.60;;;;;;4934064;29;20215;-49
2023/01/13 05:48:29;;;;;;;0.95;0.60;;;25.40;45.40;;;;;;4933668;29;20202;-52
2023/01/13 05:51:01;;;;;;;1.40;0.70;;;25.40;45.50;;;;;;4933497;29;20203;-57
2023/01/13 05:53:33;;;;;;;1.30;0.60;;;25.40;45.50;;;;;;4933084;29;20199;-55
2023/01/13 05:56:06;;;;;;;1.40;0.60;;;25.40;45.60;;;;;;4932973;29;20227;-56
2023/01/13 05:58:37;;;;;;;1.58;0.63;;;25.50;45.50;;;;;;4933319;29;20206;-54
2023/01/13 06:01:10;;;;;;;0.90;0.60;;;25.50;45.50;;;;;;4933442;29;20792;-51
2023/01/13 06:03:40;;;;;;;1.00;0.60;;;25.40;45.40;;;;;;4933753;29;20200;-51
2023/01/13 06:06:11;;;;;;;1.45;0.63;;;25.50;45.40;;;;;;4933434;29;20216;-49
2023/01/13 06:08:44;;;;;;;1.33;0.52;;;25.50;45.30;;;;;;4933337;29;20195;-53
2023/01/13 06:11:14;;;;;;;1.23;0.70;;;25.50;45.20;;;;;;4932913;29;20207;-51
2023/01/13 06:13:45;;;;;;;1.08;0.50;;;25.50;45.10;;;;;;4933545;29;20214;-48
2023/01/13 06:16:16;;;;;;;1.60;0.68;;;25.50;45.10;;;;;;4932761;29;20226;-57
2023/01/13 06:18:46;;;;;;;2.67;0.90;;;25.40;45.00;;;;;;4933833;29;20207;-50
2023/01/13 06:21:17;;;;;;;0.68;0.50;;;25.50;44.90;;;;;;4932753;29;20238;-53
2023/01/13 06:23:49;;;;;;;2.13;0.77;;;25.50;44.90;;;;;;4933753;29;20199;-53
2023/01/13 06:26:24;;;;;;;1.10;0.50;;;25.50;44.90;;;;;;4933341;29;20223;-56
2023/01/13 06:28:55;;;;;;;1.92;0.45;;;25.40;44.90;;;;;;4932349;29;20587;-53
2023/01/13 06:31:27;;;;;;;1.73;0.60;;;25.40;45.00;;;;;;4933312;29;20219;-54
2023/01/13 06:34:03;;;;;;;1.33;0.60;;;25.50;45.10;;;;;;4933163;29;20203;-53
2023/01/13 06:36:38;;;;;;;2.22;0.70;;;25.50;45.10;;;;;;4933926;29;20227;-52
2023/01/13 06:39:13;;;;;;;1.02;0.70;;;25.50;45.00;;;;;;4934003;29;20221;-51
2023/01/13 06:44:31;;;;;;;2.03;0.52;;;25.50;45.20;;;;;;4933911;29;20243;-50
2023/01/13 06:47:02;;;;;;;1.20;0.60;;;25.50;45.20;;;;;;4933462;29;20219;-51
2023/01/13 06:49:33;;;;;;;0.95;0.73;;;25.50;45.20;;;;;;4933193;29;20210;-58
2023/01/13 06:52:04;;;;;;;1.92;0.50;;;25.50;45.20;;;;;;4932898;29;20207;-52
2023/01/13 06:54:36;;;;;;;0.90;0.40;;;25.50;45.20;;;;;;4933112;29;20266;-51
2023/01/13 06:57:07;;;;;;;1.45;0.60;;;25.50;45.10;;;;;;4933291;29;20219;-46
2023/01/13 06:59:38;;;;;;;1.45;0.70;;;25.50;45.00;;;;;;4933153;29;20664;-53
2023/01/13 07:02:08;;;;;;;1.10;0.60;;;25.50;45.00;;;;;;4933075;29;20235;-55
2023/01/13 07:04:39;;;;;;;0.82;0.55;;;25.50;44.90;;;;;;4932918;29;20199;-52
2023/01/13 07:07:11;;;;;;;1.27;0.52;;;25.50;44.90;;;;;;4933164;29;20227;-58
2023/01/13 07:09:43;;;;;;;0.85;0.50;;;25.50;45.00;;;;;;4932991;29;20203;-54
2023/01/13 07:12:15;;;;;;;1.60;0.60;;;25.50;44.90;;;;;;4932656;29;20208;-56
2023/01/13 07:17:32;;;;;;;1.00;0.40;;;25.50;44.90;;;;;;4933616;29;20674;-54
2023/01/13 07:20:03;;;;;;;1.73;0.80;;;25.50;44.80;;;;;;4932475;29;20540;-51
2023/01/13 07:22:34;;;;;;;2.13;0.70;;;25.50;44.80;;;;;;4933713;29;20215;-57
2023/01/13 07:25:07;;;;;;;1.63;0.60;;;25.50;44.70;;;;;;4932837;29;20200;-55
2023/01/13 07:27:38;;;;;;;1.52;0.65;;;25.50;44.60;;;;;;4932767;29;20203;-50
2023/01/13 07:30:09;;;;;;;0.68;0.60;;;25.50;44.60;;;;;;4932844;29;20234;-57
2023/01/13 07:32:40;;;;;;;1.25;0.70;;;25.40;44.60;;;;;;4933313;29;20212;-54
2023/01/13 07:35:11;;;;;;;1.38;0.65;;;25.40;44.60;;;;;;4930863;29;20191;-52
2023/01/13 07:37:42;;;;;;;1.73;0.70;;;25.40;44.70;;;;;;4932700;29;20242;-51
2023/01/13 07:40:15;;;;;;;1.67;0.52;;;25.40;44.80;;;;;;4935838;29;20678;-51
2023/01/13 07:45:32;;;;;;;1.20;0.60;;;25.30;44.80;;;;;;4936161;29;20931;-54
2023/01/13 07:48:03;;;;;;;1.08;0.50;;;25.30;44.80;;;;;;4936505;29;20207;-56
2023/01/13 07:50:33;;;;;;;1.35;0.68;;;25.30;44.80;;;;;;4936436;29;20204;-52
2023/01/13 07:53:04;;;;;;;0.65;0.50;;;25.30;44.90;;;;;;4936710;29;20199;-50
2023/01/13 07:55:36;;;;;;;1.52;0.90;;;25.30;44.90;;;;;;4931738;29;20617;-52
2023/01/13 07:58:08;;;;;;;2.55;0.70;;;25.20;44.80;;;;;;4928319;29;20195;-54
2023/01/13 08:00:39;;;;;;;1.08;0.75;;;25.20;44.70;;;;;;4935245;29;20234;-51
2023/01/13 08:03:10;;;;;;;1.00;0.55;;;25.20;44.70;;;;;;4935560;29;20670;-52
2023/01/13 08:05:40;;;;;;;1.38;0.60;;;25.10;44.70;;;;;;4935919;29;20687;-48
2023/01/13 08:08:11;;;;;;;1.35;0.60;;;25.10;44.70;;;;;;4935580;29;20211;-50
2023/01/13 08:10:46;;;;;;;0.57;0.55;;;25.10;45.30;;;;;;4935405;29;20200;-54
2023/01/13 08:13:19;;;;;;;1.05;0.60;;;25.10;44.80;;;;;;4934637;29;20203;-53
2023/01/13 08:15:51;;;;;;;1.23;0.60;;;25.10;44.80;;;;;;4935060;29;20226;-49
2023/01/13 08:18:23;;;;;;;1.55;0.75;;;25.00;44.80;;;;;;4935022;29;20207;-51
2023/01/13 08:20:54;;;;;;;1.00;0.68;;;25.00;44.80;;;;;;4935428;29;20787;-54
2023/01/13 08:23:25;;;;;;;0.65;0.60;;;24.90;44.80;;;;;;4935659;29;20215;-52
2023/01/13 08:26:01;;;;;;;1.88;0.70;;;24.90;44.90;;;;;;4934794;29;20224;-51
2023/01/13 08:28:32;;;;;;;1.15;0.50;;;24.90;44.90;;;;;;4935832;29;20633;-51
2023/01/13 08:31:04;;;;;;;1.60;0.60;;;24.90;45.00;;;;;;4934983;29;20664;-53
2023/01/13 08:33:35;;;;;;;0.95;0.63;;;24.90;45.00;;;;;;4935013;29;20575;-52
2023/01/13 08:36:07;;;;;;;1.65;0.73;;;24.90;45.00;;;;;;4934602;29;20234;-53
2023/01/13 08:38:39;;;;;;;0.82;0.60;;;24.80;45.00;;;;;;4935029;29;20199;-50
2023/01/13 08:41:53;;;;;;;0.88;0.50;;;24.80;45.00;;;;;;4935001;29;20223;-53
2023/01/13 08:44:08;;;;;;;0.70;0.60;;;24.80;45.00;;;;;;4934297;29;20203;-54
2023/01/13 08:46:38;;;;;;;1.30;0.70;;;24.80;45.10;;;;;;4934704;29;20215;-54
2023/01/13 08:49:09;;;;;;;1.30;0.60;;;24.70;45.10;;;;;;4932608;29;20212;-55
2023/01/13 08:51:40;;;;;;;1.33;0.60;;;24.70;45.10;;;;;;4935173;29;20863;-53
2023/01/13 08:54:10;;;;;;;1.08;0.60;;;24.70;45.80;;;;;;4934461;29;20210;-57
2023/01/13 08:56:44;;;;;;;1.85;0.80;;;24.70;45.20;;;;;;4934152;29;20215;-50
2023/01/13 08:59:15;;;;;;;0.80;0.68;;;24.70;45.30;;;;;;4933508;29;20286;-51
2023/01/13 09:01:46;;;;;;;1.13;0.50;;;24.60;45.20;;;;;;4934406;29;20231;-55
2023/01/13 09:04:20;;;;;;;1.35;0.60;;;24.70;45.30;;;;;;4934269;29;20204;-55
2023/01/13 09:06:51;;;;;;;0.80;0.55;;;24.60;45.30;;;;;;4934199;29;20706;-50
2023/01/13 09:09:22;;;;;;;1.70;0.63;;;24.60;45.30;;;;;;4934083;29;20196;-53
2023/01/13 09:14:42;;;;;;;1.08;0.60;;;24.60;45.30;;;;;;4933828;29;20218;-53
2023/01/13 09:17:13;;;;;;;1.27;0.55;;;24.60;45.30;;;;;;4933935;29;20703;-55
2023/01/13 09:19:43;;;;;;;0.40;0.40;;;24.50;45.30;;;;;;4933965;29;20604;-48
2023/01/13 09:22:18;;;;;;;1.75;0.57;;;24.50;45.40;;;;;;4933730;29;20231;-54
2023/01/13 09:24:49;;;;;;;0.80;0.40;;;24.50;45.40;;;;;;4933904;29;20210;-56
2023/01/13 09:27:21;;;;;;;0.82;0.38;;;24.50;45.40;;;;;;4933795;29;20223;-54
2023/01/13 09:29:52;;;;;;;0.65;0.40;;;24.50;45.50;;;;;;4933691;29;20203;-51
2023/01/13 09:32:23;;;;;;;0.80;0.60;;;24.50;45.50;;;;;;4933563;29;20207;-54
2023/01/13 09:35:01;;;;;;;0.75;0.52;;;24.50;45.60;;;;;;4932831;29;20200;-55
2023/01/13 09:37:33;;;;;;;1.15;0.50;;;24.40;45.60;;;;;;4934359;29;20199;-51
2023/01/13 09:40:04;;;;;;;0.93;0.40;;;24.40;45.60;;;;;;4933752;29;20208;-54
2023/01/13 09:45:36;;;;;;;1.20;0.65;;;24.40;46.20;;;;;;4933017;29;20394;-57
2023/01/13 09:48:14;;;;;;;0.55;0.47;;;24.40;45.60;;;;;;4934102;29;20580;-55
2023/01/13 09:51:04;;;;;;;0.70;0.52;;;24.40;45.60;;;;;;4932980;29;20545;-54
2023/01/13 09:53:39;;;;;;;1.10;0.70;;;24.30;45.60;;;;;;4933256;29;20204;-54
2023/01/13 09:56:12;;;;;;;1.63;0.70;;;24.30;45.60;;;;;;4933017;29;20577;-55
2023/01/13 09:58:51;;;;;;;1.45;0.60;;;24.30;45.60;;;;;;4933307;29;20301;-52
2023/01/13 10:01:28;;;;;;;2.97;0.95;;;24.30;45.70;;;;;;4931863;29;20227;-53
2023/01/13 10:04:04;;;;;;;2.58;1.02;;;24.30;45.70;;;;;;4932972;29;20608;-56
2023/01/13 10:06:41;;;;;;;3.25;0.93;;;24.30;45.80;;;;;;4933137;29;20687;-53
2023/01/13 10:09:15;;;;;;;1.83;0.90;;;24.30;45.80;;;;;;4933263;29;20286;-54
2023/01/13 10:14:42;;;;;;;1.42;0.95;;;24.30;45.90;;;;;;4933870;29;20282;-55
2023/01/13 10:17:20;;;;;;;3.13;1.00;;;24.30;46.00;;;;;;4932667;29;20223;-52
2023/01/13 10:19:54;;;;;;;2.50;0.90;;;24.20;46.10;;;;;;4932992;29;20210;-52
2023/01/13 10:22:50;;;;;;;2.25;1.00;;;24.20;46.30;;;;;;4933503;29;20231;-52
2023/01/13 10:25:34;;;;;;;4.78;2.10;;;24.20;46.40;;;;;;4932390;29;20240;-55
2023/01/13 10:28:11;;;;;;;4.72;1.40;;;24.20;46.60;;;;;;4914606;29;20268;-53
2023/01/13 10:30:45;;;;;;;4.72;1.48;;;24.20;46.70;;;;;;4921001;29;20225;-58
2023/01/13 10:33:18;;;;;;;2.72;1.33;;;24.20;46.70;;;;;;4933123;29;20203;-53
2023/01/13 10:35:54;;;;;;;4.25;1.35;;;24.20;46.80;;;;;;4933116;29;20212;-54
2023/01/13 10:38:26;;;;;;;2.78;1.60;;;24.20;46.80;;;;;;4932812;29;20270;-54
2023/01/13 10:40:58;;;;;;;4.78;1.80;;;24.20;46.80;;;;;;4932063;29;20204;-53
2023/01/13 10:43:30;;;;;;;4.50;1.88;;;24.20;46.90;;;;;;4932493;29;20203;-56
2023/01/13 10:46:05;;;;;;;4.03;1.25;;;24.20;46.90;;;;;;4932671;29;20215;-54
2023/01/13 10:48:38;;;;;;;4.45;1.58;;;24.20;47.00;;;;;;4932931;29;20203;-55
2023/01/13 10:51:27;;;;;;;2.63;1.48;;;24.10;46.90;;;;;;4932397;29;20195;-56
2023/01/13 10:54:16;;;;;;;3.40;1.45;;;24.10;47.00;;;;;;4933974;29;20207;-55
2023/01/13 10:56:47;;;;;;;5.00;2.13;;;24.20;47.10;;;;;;4933026;29;20243;-59
2023/01/13 10:59:23;;;;;;;4.80;2.03;;;24.10;47.10;;;;;;4933577;29;20200;-58
2023/01/13 11:02:03;;;;;;;3.45;2.08;;;24.10;48.00;;;;;;4933102;29;20231;-58
2023/01/13 11:04:36;;;;;;;3.92;2.10;;;24.10;47.50;;;;;;4932861;29;20203;-51
2023/01/13 11:07:18;;;;;;;5.13;1.92;;;24.10;47.50;;;;;;4933472;29;20224;-54
2023/01/13 11:09:48;;;;;;;3.25;1.70;;;24.10;47.50;;;;;;4933299;29;20199;-54
2023/01/13 11:12:34;;;;;;;3.22;1.88;;;24.00;47.40;;;;;;4932008;29;20204;-52
2023/01/13 11:15:10;;;;;;;3.53;1.77;;;24.00;47.40;;;;;;4936481;29;20575;-51
2023/01/13 11:17:47;;;;;;;4.22;1.65;;;24.00;47.40;;;;;;4936787;29;20199;-58
2023/01/13 11:20:22;;;;;;;2.42;1.75;;;24.00;47.40;;;;;;4935740;29;20207;-55
2023/01/13 11:22:54;;;;;;;2.50;1.73;;;24.00;47.40;;;;;;4936497;29;20231;-57
2023/01/13 11:25:32;;;;;;;2.50;1.80;;;24.00;47.40;;;;;;4936722;29;20750;-56
2023/01/13 11:28:07;;;;;;;3.60;1.90;;;24.00;47.40;;;;;;4936871;29;20200;-54
2023/01/13 11:30:43;;;;;;;2.30;1.67;;;23.90;47.40;;;;;;4936660;29;20195;-57
2023/01/13 11:33:42;;;;;;;3.85;1.80;;;23.90;47.40;;;;;;4936698;29;20207;-57
2023/01/13 11:36:18;;;;;;;3.30;1.80;;;23.90;47.40;;;;;;4936689;29;20259;-59
2023/01/13 11:38:52;;;;;;;5.32;1.90;;;23.90;47.40;;;;;;4936277;29;20191;-56
2023/01/13 11:41:42;;;;;;;3.95;2.10;;;23.90;47.40;;;;;;4936175;29;20630;-54
2023/01/13 11:44:22;;;;;;;4.45;1.70;;;23.90;47.40;;;;;;4917612;29;20634;-52
2023/01/13 11:46:54;;;;;;;2.85;1.45;;;23.80;47.40;;;;;;4917395;29;20723;-53
2023/01/13 11:49:30;;;;;;;2.38;1.50;;;23.80;47.40;;;;;;4917207;29;20204;-53
2023/01/13 11:52:08;;;;;;;2.45;1.52;;;23.80;47.40;;;;;;4917004;29;20200;-52
2023/01/13 11:54:54;;;;;;;2.55;1.60;;;23.80;47.50;;;;;;4916824;29;20200;-53
2023/01/13 11:57:44;;;;;;;4.20;1.98;;;23.80;47.40;;;;;;4917371;29;20572;-51
2023/01/13 12:00:28;;;;;;;3.03;1.77;;;23.80;47.50;;;;;;4919918;29;20207;-55
2023/01/13 12:03:20;;;;;;;4.05;1.90;;;23.70;47.40;;;;;;4936148;29;20231;-55
2023/01/13 12:06:04;;;;;;;2.88;1.90;;;23.70;47.40;;;;;;4926854;29;20692;-56
2023/01/13 12:08:51;;;;;;;1.90;1.27;;;23.70;47.40;;;;;;4935980;29;20223;-52
2023/01/13 12:11:29;;;;;;;3.60;1.70;;;23.70;47.40;;;;;;4936272;29;20234;-49
2023/01/13 12:14:17;;;;;;;2.45;1.42;;;23.70;47.40;;;;;;4936187;29;20207;-55
2023/01/13 12:16:55;;;;;;;2.33;1.42;;;23.70;47.40;;;;;;4935771;29;20726;-52
2023/01/13 12:19:28;;;;;;;2.97;1.60;;;23.60;47.40;;;;;;4935694;29;20199;-55
2023/01/13 12:22:13;;;;;;;3.20;1.70;;;23.60;47.40;;;;;;4935727;29;20594;-50
2023/01/13 12:24:50;;;;;;;2.85;1.50;;;23.60;47.40;;;;;;4935167;29;20226;-52
2023/01/13 12:27:28;;;;;;;2.50;1.42;;;23.50;47.40;;;;;;4935267;29;20222;-54
2023/01/13 12:30:04;;;;;;;2.17;1.35;;;23.60;47.50;;;;;;4935247;29;20203;-53
2023/01/13 12:32:38;;;;;;;2.10;1.50;;;23.50;47.40;;;;;;4935203;29;20574;-55
2023/01/13 12:35:24;;;;;;;2.42;1.55;;;23.50;47.40;;;;;;4935181;29;20203;-54
2023/01/13 12:38:05;;;;;;;2.22;1.38;;;23.50;47.40;;;;;;4935727;29;20207;-51
2023/01/13 12:40:50;;;;;;;2.65;1.20;;;23.50;47.40;;;;;;4935589;29;20251;-59
2023/01/13 12:46:36;;;;;;;2.13;1.27;;;23.40;47.30;;;;;;4935441;29;20687;-58
2023/01/13 12:49:19;;;;;;;1.95;1.30;;;23.40;47.40;;;;;;4935073;29;20208;-57
2023/01/13 12:52:18;;;;;;;3.92;1.50;;;23.40;47.40;;;;;;4935263;29;20564;-58
2023/01/13 12:55:18;;;;;;;1.88;1.20;;;23.40;47.40;;;;;;4935353;29;20286;-57
2023/01/13 12:58:20;;;;;;;2.10;1.20;;;23.30;47.30;;;;;;4934854;29;20203;-57
2023/01/13 13:01:07;;;;;;;2.10;1.20;;;23.30;47.40;;;;;;4934568;29;20207;-58
2023/01/13 13:03:38;;;;;;;2.15;1.25;;;23.30;47.40;;;;;;4934983;29;20262;-58
2023/01/13 13:06:15;;;;;;;2.40;1.33;;;23.30;47.40;;;;;;4934838;29;20316;-54
2023/01/13 13:09:03;;;;;;;1.95;1.20;;;23.20;47.40;;;;;;4934782;29;20203;-57
2023/01/13 13:15:03;;;;;;;1.98;1.30;;;23.20;47.50;;;;;;4934688;29;20215;-57
2023/01/13 13:17:45;;;;;;;2.00;1.25;;;23.20;47.50;;;;;;4930651;29;20267;-55
2023/01/13 13:20:49;;;;;;;1.75;1.17;;;23.20;47.50;;;;;;4934405;29;20196;-59
2023/01/13 13:23:50;;;;;;;1.33;1.10;;;23.10;47.50;;;;;;4926611;29;20313;-57
2023/01/13 13:26:33;;;;;;;3.33;1.27;;;23.10;47.50;;;;;;4934932;29;20223;-56
2023/01/13 13:29:38;;;;;;;2.72;1.30;;;23.10;47.50;;;;;;4934659;29;20200;-59
2023/01/13 13:32:35;;;;;;;1.88;1.30;;;23.10;47.50;;;;;;4933314;29;20202;-56
2023/01/13 13:35:19;;;;;;;2.30;1.08;;;23.00;47.50;;;;;;4934370;29;20210;-52
2023/01/13 13:46:48;;;;;;;1.80;1.20;;;23.00;47.60;;;;;;4934123;29;20303;-56
2023/01/13 13:49:20;;;;;;;1.70;1.13;;;22.90;47.50;;;;;;4934189;29;20199;-55
2023/01/13 13:51:59;;;;;;;2.22;1.20;;;22.90;47.50;;;;;;4933990;29;20291;-55
2023/01/13 13:54:31;;;;;;;1.58;0.95;;;22.90;47.60;;;;;;4934203;29;20211;-54
2023/01/13 13:57:02;;;;;;;1.83;1.10;;;22.90;47.60;;;;;;4934249;29;20215;-55
2023/01/13 13:59:33;;;;;;;1.52;1.20;;;22.90;47.60;;;;;;4934303;29;20207;-59
2023/01/13 14:02:16;;;;;;;1.83;1.15;;;22.90;47.60;;;;;;4934170;29;20204;-55
2023/01/13 14:04:47;;;;;;;2.22;1.00;;;22.90;47.60;;;;;;4934157;29;20202;-59
2023/01/13 14:07:22;;;;;;;1.20;1.10;;;22.90;47.60;;;;;;4933936;29;20223;-55
2023/01/13 14:09:56;;;;;;;1.83;1.10;;;22.90;48.20;;;;;;4934232;29;20247;-55
2023/01/13 14:12:29;;;;;;;1.75;1.20;;;22.80;47.60;;;;;;4934079;29;20221;-52
2023/01/13 14:15:00;;;;;;;2.08;1.23;;;22.80;47.60;;;;;;4933867;29;20307;-55
2023/01/13 14:17:33;;;;;;;1.95;1.10;;;22.80;47.70;;;;;;4934045;29;20204;-52
2023/01/13 14:20:06;;;;;;;1.17;0.95;;;22.80;47.60;;;;;;4933462;29;20245;-55
2023/01/13 14:22:37;;;;;;;1.65;0.80;;;22.80;47.70;;;;;;4933774;29;20317;-56
2023/01/13 14:25:31;;;;;;;1.77;1.00;;;22.80;47.70;;;;;;4933734;29;20203;-55
2023/01/13 14:28:08;;;;;;;1.30;0.90;;;22.80;47.70;;;;;;4933938;29;20210;-51